sensor_id;sensor_type;location;lat;lon;timestamp;pressure;altitude;pressure_sealevel;temperature;humidity
50682;BME280;36779;52.168;20.878;2022-08-19T00:00:44;100173.83;;;20.97;60.79
50682;BME280;36779;52.168;20.878;2022-08-19T00:03:13;100174.38;;;20.90;60.95
50682;BME280;36779;52.168;20.878;2022-08-19T00:10:40;100164.85;;;20.80;61.05
50682;BME280;36779;52.168;20.878;2022-08-19T00:13:21;100164.54;;;20.71;60.94
50682;BME280;36779;52.168;20.878;2022-08-19T00:24:31;100168.43;;;20.53;61.30
50682;BME280;36779;52.168;20.878;2022-08-19T00:27:09;100167.38;;;20.49;61.36
50682;BME280;36779;52.168;20.878;2022-08-19T00:37:58;100161.09;;;20.29;61.70
50682;BME280;36779;52.168;20.878;2022-08-19T00:47:36;100164.39;;;20.29;61.81
50682;BME280;36779;52.168;20.878;2022-08-19T00:50:26;100159.09;;;20.21;61.97
50682;BME280;36779;52.168;20.878;2022-08-19T00:52:56;100152.72;;;20.15;61.97
50682;BME280;36779;52.168;20.878;2022-08-19T00:55:47;100152.95;;;20.12;62.04
50682;BME280;36779;52.168;20.878;2022-08-19T00:58:21;100152.05;;;20.10;62.14
50682;BME280;36779;52.168;20.878;2022-08-19T01:00:52;100160.73;;;20.11;62.17
50682;BME280;36779;52.168;20.878;2022-08-19T01:03:24;100168.42;;;20.13;62.41
50682;BME280;36779;52.168;20.878;2022-08-19T01:05:54;100171.60;;;20.17;62.62
50682;BME280;36779;52.168;20.878;2022-08-19T01:08:23;100172.70;;;20.24;62.63
50682;BME280;36779;52.168;20.878;2022-08-19T01:11:14;100172.43;;;20.28;62.64
50682;BME280;36779;52.168;20.878;2022-08-19T01:13:43;100175.27;;;20.26;62.46
50682;BME280;36779;52.168;20.878;2022-08-19T01:16:20;100177.64;;;20.22;62.42
50682;BME280;36779;52.168;20.878;2022-08-19T01:18:50;100176.94;;;20.16;62.54
50682;BME280;36779;52.168;20.878;2022-08-19T01:21:23;100173.46;;;20.12;62.67
50682;BME280;36779;52.168;20.878;2022-08-19T01:23:55;100176.08;;;20.12;62.85
50682;BME280;36779;52.168;20.878;2022-08-19T01:26:25;100178.21;;;20.17;62.86
50682;BME280;36779;52.168;20.878;2022-08-19T01:28:59;100176.95;;;20.22;62.84
50682;BME280;36779;52.168;20.878;2022-08-19T01:31:32;100176.32;;;20.19;62.79
50682;BME280;36779;52.168;20.878;2022-08-19T01:34:02;100174.38;;;20.12;62.74
50682;BME280;36779;52.168;20.878;2022-08-19T01:36:33;100172.18;;;20.09;62.93
50682;BME280;36779;52.168;20.878;2022-08-19T01:39:08;100168.41;;;20.10;62.86
50682;BME280;36779;52.168;20.878;2022-08-19T01:41:40;100164.70;;;20.06;62.87
50682;BME280;36779;52.168;20.878;2022-08-19T01:44:10;100161.06;;;19.99;62.81
50682;BME280;36779;52.168;20.878;2022-08-19T01:46:47;100160.81;;;19.92;62.85
50682;BME280;36779;52.168;20.878;2022-08-19T01:49:18;100160.59;;;19.92;63.09
50682;BME280;36779;52.168;20.878;2022-08-19T01:51:47;100161.14;;;19.94;63.07
50682;BME280;36779;52.168;20.878;2022-08-19T01:54:18;100158.56;;;19.97;63.30
50682;BME280;36779;52.168;20.878;2022-08-19T01:56:59;100153.11;;;20.00;63.51
50682;BME280;36779;52.168;20.878;2022-08-19T01:59:30;100153.98;;;20.04;63.54
50682;BME280;36779;52.168;20.878;2022-08-19T02:02:04;100157.24;;;20.08;63.55
50682;BME280;36779;52.168;20.878;2022-08-19T02:04:35;100151.66;;;20.12;63.66
50682;BME280;36779;52.168;20.878;2022-08-19T02:07:08;100150.83;;;20.15;63.53
50682;BME280;36779;52.168;20.878;2022-08-19T02:09:37;100146.16;;;20.19;63.65
50682;BME280;36779;52.168;20.878;2022-08-19T02:12:17;100145.14;;;20.21;63.69
50682;BME280;36779;52.168;20.878;2022-08-19T02:14:45;100141.91;;;20.22;63.74
50682;BME280;36779;52.168;20.878;2022-08-19T02:17:14;100138.81;;;20.24;63.59
50682;BME280;36779;52.168;20.878;2022-08-19T02:19:45;100138.16;;;20.26;63.70
50682;BME280;36779;52.168;20.878;2022-08-19T02:22:16;100137.04;;;20.29;63.90
50682;BME280;36779;52.168;20.878;2022-08-19T02:24:47;100140.27;;;20.32;63.87
50682;BME280;36779;52.168;20.878;2022-08-19T02:27:15;100139.64;;;20.35;63.92
50682;BME280;36779;52.168;20.878;2022-08-19T02:29:46;100132.83;;;20.36;63.86
50682;BME280;36779;52.168;20.878;2022-08-19T02:32:16;100135.08;;;20.37;63.91
50682;BME280;36779;52.168;20.878;2022-08-19T02:34:47;100141.22;;;20.38;63.84
50682;BME280;36779;52.168;20.878;2022-08-19T02:37:16;100139.16;;;20.39;63.88
50682;BME280;36779;52.168;20.878;2022-08-19T02:40:21;100138.95;;;20.40;63.90
50682;BME280;36779;52.168;20.878;2022-08-19T02:42:51;100139.66;;;20.38;63.96
50682;BME280;36779;52.168;20.878;2022-08-19T02:45:20;100144.20;;;20.40;63.95
50682;BME280;36779;52.168;20.878;2022-08-19T02:47:49;100141.84;;;20.41;64.11
50682;BME280;36779;52.168;20.878;2022-08-19T02:50:18;100145.32;;;20.41;64.08
50682;BME280;36779;52.168;20.878;2022-08-19T02:52:47;100146.14;;;20.46;64.14
50682;BME280;36779;52.168;20.878;2022-08-19T02:55:16;100149.54;;;20.51;64.01
50682;BME280;36779;52.168;20.878;2022-08-19T02:57:44;100147.77;;;20.57;64.16
50682;BME280;36779;52.168;20.878;2022-08-19T03:00:14;100145.98;;;20.57;64.05
50682;BME280;36779;52.168;20.878;2022-08-19T03:02:43;100145.83;;;20.52;64.01
50682;BME280;36779;52.168;20.878;2022-08-19T03:05:11;100141.35;;;20.43;63.80
50682;BME280;36779;52.168;20.878;2022-08-19T03:07:40;100142.95;;;20.33;63.89
50682;BME280;36779;52.168;20.878;2022-08-19T03:10:09;100143.45;;;20.34;64.02
50682;BME280;36779;52.168;20.878;2022-08-19T03:12:38;100143.52;;;20.37;64.07
50682;BME280;36779;52.168;20.878;2022-08-19T03:15:09;100140.49;;;20.37;64.17
50682;BME280;36779;52.168;20.878;2022-08-19T03:17:38;100136.45;;;20.31;64.06
50682;BME280;36779;52.168;20.878;2022-08-19T03:20:11;100133.48;;;20.25;63.91
50682;BME280;36779;52.168;20.878;2022-08-19T03:22:39;100133.67;;;20.22;64.09
50682;BME280;36779;52.168;20.878;2022-08-19T03:25:09;100134.16;;;20.20;64.11
50682;BME280;36779;52.168;20.878;2022-08-19T03:27:39;100136.84;;;20.21;64.21
50682;BME280;36779;52.168;20.878;2022-08-19T03:30:10;100143.10;;;20.25;64.38
50682;BME280;36779;52.168;20.878;2022-08-19T03:32:39;100145.02;;;20.25;64.21
50682;BME280;36779;52.168;20.878;2022-08-19T03:35:26;100147.79;;;20.19;64.25
50682;BME280;36779;52.168;20.878;2022-08-19T03:37:58;100150.68;;;20.18;64.21
50682;BME280;36779;52.168;20.878;2022-08-19T03:40:27;100148.69;;;20.20;64.34
50682;BME280;36779;52.168;20.878;2022-08-19T03:43:10;100151.49;;;20.25;64.43
50682;BME280;36779;52.168;20.878;2022-08-19T03:45:39;100153.35;;;20.27;64.40
50682;BME280;36779;52.168;20.878;2022-08-19T03:48:10;100160.77;;;20.31;64.61
50682;BME280;36779;52.168;20.878;2022-08-19T03:50:42;100163.05;;;20.38;64.69
50682;BME280;36779;52.168;20.878;2022-08-19T03:53:10;100166.77;;;20.36;64.52
50682;BME280;36779;52.168;20.878;2022-08-19T03:55:41;100167.91;;;20.33;64.48
50682;BME280;36779;52.168;20.878;2022-08-19T03:58:10;100168.30;;;20.36;64.77
50682;BME280;36779;52.168;20.878;2022-08-19T04:00:42;100168.14;;;20.40;64.65
50682;BME280;36779;52.168;20.878;2022-08-19T04:03:11;100167.11;;;20.40;64.57
50682;BME280;36779;52.168;20.878;2022-08-19T04:05:39;100166.64;;;20.40;64.53
50682;BME280;36779;52.168;20.878;2022-08-19T04:08:08;100164.77;;;20.42;64.59
50682;BME280;36779;52.168;20.878;2022-08-19T04:10:41;100161.36;;;20.44;64.54
50682;BME280;36779;52.168;20.878;2022-08-19T04:13:12;100161.80;;;20.49;64.64
50682;BME280;36779;52.168;20.878;2022-08-19T04:15:45;100161.11;;;20.52;64.76
50682;BME280;36779;52.168;20.878;2022-08-19T04:18:14;100155.13;;;20.53;64.74
50682;BME280;36779;52.168;20.878;2022-08-19T04:20:45;100150.21;;;20.56;64.64
50682;BME280;36779;52.168;20.878;2022-08-19T04:23:16;100146.14;;;20.60;64.70
50682;BME280;36779;52.168;20.878;2022-08-19T04:25:46;100146.10;;;20.68;64.77
50682;BME280;36779;52.168;20.878;2022-08-19T04:28:17;100149.01;;;20.76;64.97
50682;BME280;36779;52.168;20.878;2022-08-19T04:30:49;100151.60;;;20.85;64.99
50682;BME280;36779;52.168;20.878;2022-08-19T04:33:20;100154.73;;;20.94;64.95
50682;BME280;36779;52.168;20.878;2022-08-19T04:35:56;100160.24;;;21.03;65.05
50682;BME280;36779;52.168;20.878;2022-08-19T04:38:26;100159.04;;;21.11;65.01
50682;BME280;36779;52.168;20.878;2022-08-19T04:40:54;100162.11;;;21.21;64.91
50682;BME280;36779;52.168;20.878;2022-08-19T04:43:52;100161.34;;;21.34;65.09
50682;BME280;36779;52.168;20.878;2022-08-19T04:46:23;100161.17;;;21.47;65.19
50682;BME280;36779;52.168;20.878;2022-08-19T04:49:11;100152.54;;;21.59;65.19
50682;BME280;36779;52.168;20.878;2022-08-19T04:51:45;100151.63;;;21.71;65.13
50682;BME280;36779;52.168;20.878;2022-08-19T04:54:18;100147.80;;;21.80;65.05
50682;BME280;36779;52.168;20.878;2022-08-19T04:57:09;100149.42;;;21.94;65.02
50682;BME280;36779;52.168;20.878;2022-08-19T04:59:39;100150.42;;;22.07;65.08
50682;BME280;36779;52.168;20.878;2022-08-19T05:02:08;100149.21;;;22.15;64.85
50682;BME280;36779;52.168;20.878;2022-08-19T05:04:37;100152.84;;;22.20;64.76
50682;BME280;36779;52.168;20.878;2022-08-19T05:07:07;100153.55;;;22.23;64.72
50682;BME280;36779;52.168;20.878;2022-08-19T05:09:37;100149.79;;;22.27;64.80
50682;BME280;36779;52.168;20.878;2022-08-19T05:12:27;100150.02;;;22.31;64.69
50682;BME280;36779;52.168;20.878;2022-08-19T05:15:17;100148.59;;;22.31;64.48
50682;BME280;36779;52.168;20.878;2022-08-19T05:17:47;100151.20;;;22.34;64.55
50682;BME280;36779;52.168;20.878;2022-08-19T05:20:30;100159.03;;;22.38;64.49
50682;BME280;36779;52.168;20.878;2022-08-19T05:23:17;100161.47;;;22.41;64.48
50682;BME280;36779;52.168;20.878;2022-08-19T05:25:50;100165.91;;;22.43;64.46
50682;BME280;36779;52.168;20.878;2022-08-19T05:28:22;100163.02;;;22.45;64.60
50682;BME280;36779;52.168;20.878;2022-08-19T05:30:51;100160.45;;;22.48;64.37
50682;BME280;36779;52.168;20.878;2022-08-19T05:33:23;100156.77;;;22.51;64.35
50682;BME280;36779;52.168;20.878;2022-08-19T05:35:52;100160.70;;;22.63;64.55
50682;BME280;36779;52.168;20.878;2022-08-19T05:38:20;100164.54;;;22.72;64.37
50682;BME280;36779;52.168;20.878;2022-08-19T05:40:50;100170.98;;;22.77;64.37
50682;BME280;36779;52.168;20.878;2022-08-19T05:43:18;100177.96;;;22.82;64.38
50682;BME280;36779;52.168;20.878;2022-08-19T05:45:47;100181.48;;;22.88;64.38
50682;BME280;36779;52.168;20.878;2022-08-19T05:48:16;100183.98;;;22.92;64.29
50682;BME280;36779;52.168;20.878;2022-08-19T05:50:52;100180.05;;;22.91;64.16
50682;BME280;36779;52.168;20.878;2022-08-19T05:53:21;100175.92;;;22.91;64.14
50682;BME280;36779;52.168;20.878;2022-08-19T05:55:49;100172.39;;;22.93;64.08
50682;BME280;36779;52.168;20.878;2022-08-19T05:58:18;100165.98;;;22.93;64.06
50682;BME280;36779;52.168;20.878;2022-08-19T06:00:53;100160.86;;;22.96;64.05
50682;BME280;36779;52.168;20.878;2022-08-19T06:03:33;100155.52;;;23.03;64.31
50682;BME280;36779;52.168;20.878;2022-08-19T06:06:10;100147.44;;;23.12;64.26
50682;BME280;36779;52.168;20.878;2022-08-19T06:08:42;100146.10;;;23.22;64.33
50682;BME280;36779;52.168;20.878;2022-08-19T06:11:19;100150.68;;;23.31;64.16
50682;BME280;36779;52.168;20.878;2022-08-19T06:13:53;100158.55;;;23.38;64.12
50682;BME280;36779;52.168;20.878;2022-08-19T06:16:30;100167.89;;;23.44;64.14
50682;BME280;36779;52.168;20.878;2022-08-19T06:19:14;100170.05;;;23.47;64.09
50682;BME280;36779;52.168;20.878;2022-08-19T06:21:46;100173.16;;;23.51;64.03
50682;BME280;36779;52.168;20.878;2022-08-19T06:24:17;100173.28;;;23.53;64.00
50682;BME280;36779;52.168;20.878;2022-08-19T06:26:47;100179.71;;;23.57;63.91
50682;BME280;36779;52.168;20.878;2022-08-19T06:29:33;100183.16;;;23.65;64.00
50682;BME280;36779;52.168;20.878;2022-08-19T06:32:04;100184.91;;;23.71;63.86
50682;BME280;36779;52.168;20.878;2022-08-19T06:34:34;100183.13;;;23.77;63.79
50682;BME280;36779;52.168;20.878;2022-08-19T06:37:03;100186.00;;;23.80;63.77
50682;BME280;36779;52.168;20.878;2022-08-19T06:39:36;100188.54;;;23.83;63.61
50682;BME280;36779;52.168;20.878;2022-08-19T06:42:10;100186.27;;;23.84;63.62
50682;BME280;36779;52.168;20.878;2022-08-19T06:45:01;100181.15;;;23.84;63.57
50682;BME280;36779;52.168;20.878;2022-08-19T06:47:57;100182.36;;;23.86;63.60
50682;BME280;36779;52.168;20.878;2022-08-19T06:50:28;100179.75;;;23.96;63.68
50682;BME280;36779;52.168;20.878;2022-08-19T06:53:08;100180.83;;;24.09;63.78
50682;BME280;36779;52.168;20.878;2022-08-19T06:55:37;100175.16;;;24.20;63.77
50682;BME280;36779;52.168;20.878;2022-08-19T06:58:05;100176.02;;;24.26;63.66
50682;BME280;36779;52.168;20.878;2022-08-19T07:00:34;100177.11;;;24.31;63.64
50682;BME280;36779;52.168;20.878;2022-08-19T07:03:04;100180.43;;;24.40;63.58
50682;BME280;36779;52.168;20.878;2022-08-19T07:05:41;100183.17;;;24.53;63.66
50682;BME280;36779;52.168;20.878;2022-08-19T07:08:16;100184.95;;;24.69;63.71
50682;BME280;36779;52.168;20.878;2022-08-19T07:10:46;100187.67;;;24.83;63.62
50682;BME280;36779;52.168;20.878;2022-08-19T07:13:15;100183.45;;;24.94;63.54
50682;BME280;36779;52.168;20.878;2022-08-19T07:15:44;100188.15;;;25.04;63.47
50682;BME280;36779;52.168;20.878;2022-08-19T07:18:15;100189.73;;;25.16;63.47
50682;BME280;36779;52.168;20.878;2022-08-19T07:21:04;100181.48;;;25.27;63.29
50682;BME280;36779;52.168;20.878;2022-08-19T07:23:39;100170.90;;;25.36;63.22
50682;BME280;36779;52.168;20.878;2022-08-19T07:26:08;100169.31;;;25.44;63.22
50682;BME280;36779;52.168;20.878;2022-08-19T07:28:38;100173.81;;;25.54;63.13
50682;BME280;36779;52.168;20.878;2022-08-19T07:31:24;100168.96;;;25.63;63.09
50682;BME280;36779;52.168;20.878;2022-08-19T07:33:54;100165.23;;;25.72;63.03
50682;BME280;36779;52.168;20.878;2022-08-19T07:36:28;100164.27;;;25.80;62.90
50682;BME280;36779;52.168;20.878;2022-08-19T07:39:22;100166.29;;;25.90;62.88
50682;BME280;36779;52.168;20.878;2022-08-19T07:41:56;100162.61;;;26.00;62.83
50682;BME280;36779;52.168;20.878;2022-08-19T07:44:26;100168.41;;;26.10;62.85
50682;BME280;36779;52.168;20.878;2022-08-19T07:47:15;100166.63;;;26.20;62.69
50682;BME280;36779;52.168;20.878;2022-08-19T07:50:25;100169.09;;;26.29;62.62
50682;BME280;36779;52.168;20.878;2022-08-19T07:53:02;100169.44;;;26.36;62.49
50682;BME280;36779;52.168;20.878;2022-08-19T07:55:52;100169.83;;;26.40;62.47
50682;BME280;36779;52.168;20.878;2022-08-19T07:58:24;100166.27;;;26.45;62.45
50682;BME280;36779;52.168;20.878;2022-08-19T08:00:53;100164.06;;;26.53;62.25
50682;BME280;36779;52.168;20.878;2022-08-19T08:03:43;100163.78;;;26.59;62.31
50682;BME280;36779;52.168;20.878;2022-08-19T08:06:32;100160.29;;;26.67;62.19
50682;BME280;36779;52.168;20.878;2022-08-19T08:09:29;100157.66;;;26.74;62.17
50682;BME280;36779;52.168;20.878;2022-08-19T08:12:05;100157.31;;;26.82;62.14
50682;BME280;36779;52.168;20.878;2022-08-19T08:14:56;100162.77;;;26.93;62.17
50682;BME280;36779;52.168;20.878;2022-08-19T08:17:39;100163.19;;;27.03;62.11
50682;BME280;36779;52.168;20.878;2022-08-19T08:20:39;100166.74;;;27.16;62.03
50682;BME280;36779;52.168;20.878;2022-08-19T08:23:28;100166.93;;;27.30;61.93
50682;BME280;36779;52.168;20.878;2022-08-19T08:26:01;100167.55;;;27.42;61.90
50682;BME280;36779;52.168;20.878;2022-08-19T08:28:50;100166.88;;;27.56;61.97
50682;BME280;36779;52.168;20.878;2022-08-19T08:31:39;100170.89;;;27.68;61.83
50682;BME280;36779;52.168;20.878;2022-08-19T08:34:13;100167.66;;;27.82;61.77
50682;BME280;36779;52.168;20.878;2022-08-19T08:37:02;100166.71;;;27.97;61.65
50682;BME280;36779;52.168;20.878;2022-08-19T08:39:52;100162.61;;;28.13;61.70
50682;BME280;36779;52.168;20.878;2022-08-19T08:42:53;100162.98;;;28.32;61.61
50682;BME280;36779;52.168;20.878;2022-08-19T08:45:53;100167.64;;;28.57;61.63
50682;BME280;36779;52.168;20.878;2022-08-19T08:48:38;100170.61;;;28.86;61.65
50682;BME280;36779;52.168;20.878;2022-08-19T08:51:32;100178.73;;;29.20;61.65
50682;BME280;36779;52.168;20.878;2022-08-19T08:54:25;100186.83;;;29.59;61.56
50682;BME280;36779;52.168;20.878;2022-08-19T08:57:10;100187.35;;;29.88;61.26
50682;BME280;36779;52.168;20.878;2022-08-19T09:00:03;100181.83;;;30.17;61.13
50682;BME280;36779;52.168;20.878;2022-08-19T09:03:06;100177.11;;;30.49;60.86
50682;BME280;36779;52.168;20.878;2022-08-19T09:06:02;100172.57;;;30.75;60.56
50682;BME280;36779;52.168;20.878;2022-08-19T09:08:48;100174.06;;;31.03;60.51
50682;BME280;36779;52.168;20.878;2022-08-19T09:11:56;100177.52;;;31.30;60.08
50682;BME280;36779;52.168;20.878;2022-08-19T09:14:52;100176.65;;;31.45;59.56
50682;BME280;36779;52.168;20.878;2022-08-19T09:17:42;100181.71;;;31.63;59.33
50682;BME280;36779;52.168;20.878;2022-08-19T09:20:37;100182.75;;;31.82;59.14
50682;BME280;36779;52.168;20.878;2022-08-19T09:23:32;100187.08;;;32.04;58.88
50682;BME280;36779;52.168;20.878;2022-08-19T09:26:24;100191.53;;;32.24;58.65
50682;BME280;36779;52.168;20.878;2022-08-19T09:29:34;100202.35;;;32.47;58.42
50682;BME280;36779;52.168;20.878;2022-08-19T09:32:23;100197.86;;;32.62;58.05
50682;BME280;36779;52.168;20.878;2022-08-19T09:35:15;100199.60;;;32.87;57.87
50682;BME280;36779;52.168;20.878;2022-08-19T09:38:04;100194.89;;;33.08;57.51
50682;BME280;36779;52.168;20.878;2022-08-19T09:41:03;100195.48;;;33.28;57.42
50682;BME280;36779;52.168;20.878;2022-08-19T09:43:56;100199.52;;;33.44;56.98
50682;BME280;36779;52.168;20.878;2022-08-19T09:46:45;100200.50;;;33.59;56.79
50682;BME280;36779;52.168;20.878;2022-08-19T09:49:35;100206.52;;;33.69;56.23
50682;BME280;36779;52.168;20.878;2022-08-19T09:52:26;100206.64;;;33.57;55.78
50682;BME280;36779;52.168;20.878;2022-08-19T09:55:20;100201.98;;;33.43;55.50
50682;BME280;36779;52.168;20.878;2022-08-19T09:58:12;100191.81;;;33.35;55.29
50682;BME280;36779;52.168;20.878;2022-08-19T10:01:02;100187.36;;;33.36;55.29
50682;BME280;36779;52.168;20.878;2022-08-19T10:03:53;100188.09;;;33.52;55.42
50682;BME280;36779;52.168;20.878;2022-08-19T10:06:43;100184.63;;;33.69;55.06
50682;BME280;36779;52.168;20.878;2022-08-19T10:09:29;100181.14;;;33.82;54.96
50682;BME280;36779;52.168;20.878;2022-08-19T10:12:22;100184.19;;;33.85;54.54
50682;BME280;36779;52.168;20.878;2022-08-19T10:15:14;100183.86;;;33.81;54.43
50682;BME280;36779;52.168;20.878;2022-08-19T10:18:03;100180.00;;;33.98;54.43
50682;BME280;36779;52.168;20.878;2022-08-19T10:21:04;100177.02;;;34.21;54.38
50682;BME280;36779;52.168;20.878;2022-08-19T10:23:58;100174.59;;;34.33;53.99
50682;BME280;36779;52.168;20.878;2022-08-19T10:26:47;100175.06;;;34.39;53.82
50682;BME280;36779;52.168;20.878;2022-08-19T10:29:44;100178.84;;;34.31;53.17
50682;BME280;36779;52.168;20.878;2022-08-19T10:32:39;100175.96;;;34.14;53.15
50682;BME280;36779;52.168;20.878;2022-08-19T10:35:34;100171.23;;;34.31;53.22
50682;BME280;36779;52.168;20.878;2022-08-19T10:38:48;100171.52;;;34.37;52.91
50682;BME280;36779;52.168;20.878;2022-08-19T10:41:43;100170.80;;;34.39;52.62
50682;BME280;36779;52.168;20.878;2022-08-19T10:44:34;100170.34;;;34.41;52.51
50682;BME280;36779;52.168;20.878;2022-08-19T10:47:23;100172.95;;;34.46;52.48
50682;BME280;36779;52.168;20.878;2022-08-19T10:50:19;100174.09;;;34.45;52.10
50682;BME280;36779;52.168;20.878;2022-08-19T10:53:27;100173.70;;;34.40;51.85
50682;BME280;36779;52.168;20.878;2022-08-19T10:59:46;100165.01;;;34.38;51.48
50682;BME280;36779;52.168;20.878;2022-08-19T11:03:03;100161.54;;;34.28;51.23
50682;BME280;36779;52.168;20.878;2022-08-19T11:10:55;100157.96;;;34.17;51.16
50682;BME280;36779;52.168;20.878;2022-08-19T11:18:23;100145.44;;;34.57;50.59
50682;BME280;36779;52.168;20.878;2022-08-19T11:22:09;100143.85;;;34.37;50.37
50682;BME280;36779;52.168;20.878;2022-08-19T11:25:31;100140.38;;;34.30;50.24
50682;BME280;36779;52.168;20.878;2022-08-19T11:33:27;100134.67;;;34.14;49.93
50682;BME280;36779;52.168;20.878;2022-08-19T11:37:08;100126.55;;;34.29;50.18
50682;BME280;36779;52.168;20.878;2022-08-19T11:40:13;100127.52;;;34.39;49.82
50682;BME280;36779;52.168;20.878;2022-08-19T15:04:24;100053.91;;;32.41;46.20
50682;BME280;36779;52.168;20.878;2022-08-19T15:07:36;100053.84;;;32.38;46.18
50682;BME280;36779;52.168;20.878;2022-08-19T15:14:48;100051.68;;;32.25;46.17
50682;BME280;36779;52.168;20.878;2022-08-19T15:17:40;100048.41;;;32.20;46.16
50682;BME280;36779;52.168;20.878;2022-08-19T15:20:34;100048.34;;;32.16;46.13
50682;BME280;36779;52.168;20.878;2022-08-19T15:23:23;100042.46;;;32.13;46.11
50682;BME280;36779;52.168;20.878;2022-08-19T15:26:12;100041.60;;;32.10;46.16
50682;BME280;36779;52.168;20.878;2022-08-19T15:29:04;100036.99;;;32.05;46.08
50682;BME280;36779;52.168;20.878;2022-08-19T15:31:53;100033.14;;;32.00;46.10
50682;BME280;36779;52.168;20.878;2022-08-19T15:34:46;100029.79;;;31.95;46.03
50682;BME280;36779;52.168;20.878;2022-08-19T15:37:36;100030.51;;;31.91;46.06
50682;BME280;36779;52.168;20.878;2022-08-19T15:40:27;100036.42;;;31.87;46.05
50682;BME280;36779;52.168;20.878;2022-08-19T15:43:16;100036.61;;;31.83;45.82
50682;BME280;36779;52.168;20.878;2022-08-19T15:46:06;100037.99;;;31.76;45.91
50682;BME280;36779;52.168;20.878;2022-08-19T15:48:55;100037.98;;;31.72;45.92
50682;BME280;36779;52.168;20.878;2022-08-19T15:51:49;100032.61;;;31.66;45.95
50682;BME280;36779;52.168;20.878;2022-08-19T15:54:42;100033.91;;;31.59;45.89
50682;BME280;36779;52.168;20.878;2022-08-19T15:57:26;100035.40;;;31.50;45.89
50682;BME280;36779;52.168;20.878;2022-08-19T16:00:29;100037.83;;;31.43;45.92
50682;BME280;36779;52.168;20.878;2022-08-19T16:03:34;100032.52;;;31.33;45.92
50682;BME280;36779;52.168;20.878;2022-08-19T16:06:43;100032.30;;;31.24;45.91
50682;BME280;36779;52.168;20.878;2022-08-19T16:09:32;100032.62;;;31.17;45.96
50682;BME280;36779;52.168;20.878;2022-08-19T16:12:23;100030.59;;;31.12;46.08
50682;BME280;36779;52.168;20.878;2022-08-19T16:15:17;100024.02;;;31.05;45.98
50682;BME280;36779;52.168;20.878;2022-08-19T16:18:08;100024.05;;;30.95;46.07
50682;BME280;36779;52.168;20.878;2022-08-19T16:20:57;100021.03;;;30.87;46.02
50682;BME280;36779;52.168;20.878;2022-08-19T16:23:48;100018.27;;;30.82;46.02
50682;BME280;36779;52.168;20.878;2022-08-19T16:26:37;100014.43;;;30.75;46.07
50682;BME280;36779;52.168;20.878;2022-08-19T16:29:26;100014.15;;;30.64;46.06
50682;BME280;36779;52.168;20.878;2022-08-19T16:32:26;100012.27;;;30.53;46.08
50682;BME280;36779;52.168;20.878;2022-08-19T16:35:15;100013.48;;;30.44;46.11
50682;BME280;36779;52.168;20.878;2022-08-19T16:38:04;100010.06;;;30.36;46.13
50682;BME280;36779;52.168;20.878;2022-08-19T16:40:55;100010.64;;;30.28;46.09
50682;BME280;36779;52.168;20.878;2022-08-19T16:43:44;100016.33;;;30.19;46.12
50682;BME280;36779;52.168;20.878;2022-08-19T16:46:34;100015.45;;;30.12;46.21
50682;BME280;36779;52.168;20.878;2022-08-19T16:49:26;100018.18;;;30.03;46.31
50682;BME280;36779;52.168;20.878;2022-08-19T16:52:35;100025.27;;;29.93;46.29
50682;BME280;36779;52.168;20.878;2022-08-19T16:55:24;100026.29;;;29.84;46.35
50682;BME280;36779;52.168;20.878;2022-08-19T16:58:15;100025.16;;;29.76;46.43
50682;BME280;36779;52.168;20.878;2022-08-19T17:01:10;100025.16;;;29.68;46.33
50682;BME280;36779;52.168;20.878;2022-08-19T17:03:53;100023.52;;;29.61;46.49
50682;BME280;36779;52.168;20.878;2022-08-19T17:06:43;100024.73;;;29.51;46.52
50682;BME280;36779;52.168;20.878;2022-08-19T17:09:32;100025.89;;;29.43;46.67
50682;BME280;36779;52.168;20.878;2022-08-19T17:12:22;100022.26;;;29.32;46.50
50682;BME280;36779;52.168;20.878;2022-08-19T17:15:19;100015.42;;;29.22;46.56
50682;BME280;36779;52.168;20.878;2022-08-19T17:18:09;100011.14;;;29.14;46.69
50682;BME280;36779;52.168;20.878;2022-08-19T17:21:00;100011.81;;;29.05;46.80
50682;BME280;36779;52.168;20.878;2022-08-19T17:23:50;100013.88;;;28.95;46.73
50682;BME280;36779;52.168;20.878;2022-08-19T17:26:39;100021.33;;;28.86;46.93
50682;BME280;36779;52.168;20.878;2022-08-19T17:29:28;100030.63;;;28.79;46.96
50682;BME280;36779;52.168;20.878;2022-08-19T17:32:17;100031.06;;;28.70;47.03
50682;BME280;36779;52.168;20.878;2022-08-19T17:35:13;100033.67;;;28.62;47.03
50682;BME280;36779;52.168;20.878;2022-08-19T17:38:04;100037.48;;;28.54;47.03
50682;BME280;36779;52.168;20.878;2022-08-19T17:40:53;100047.09;;;28.47;47.24
50682;BME280;36779;52.168;20.878;2022-08-19T17:43:48;100057.80;;;28.39;47.14
50682;BME280;36779;52.168;20.878;2022-08-19T17:46:37;100062.89;;;28.31;47.25
50682;BME280;36779;52.168;20.878;2022-08-19T17:49:25;100069.88;;;28.23;47.36
50682;BME280;36779;52.168;20.878;2022-08-19T17:52:14;100075.48;;;28.14;47.40
50682;BME280;36779;52.168;20.878;2022-08-19T17:55:04;100079.42;;;28.07;47.51
50682;BME280;36779;52.168;20.878;2022-08-19T17:57:54;100086.11;;;28.00;47.43
50682;BME280;36779;52.168;20.878;2022-08-19T18:00:43;100090.33;;;27.92;47.55
50682;BME280;36779;52.168;20.878;2022-08-19T18:03:42;100099.90;;;27.86;47.69
50682;BME280;36779;52.168;20.878;2022-08-19T18:06:31;100103.60;;;27.79;47.72
50682;BME280;36779;52.168;20.878;2022-08-19T18:09:22;100114.24;;;27.70;47.71